»·PEaware :: N172MS KHQM-KOLM

N172MS :: KHQM-KOLM

FLIGHT INFORMATION

Flight Status: Arrived
Operator: Privately registered:
United States
More flights under this callsign
Pilot: Michael P. (16797)
Aircraft: CESSNA 172 SKYHAWK
(C172)
More flights by this aircraft type
Origin: KHQM Bowerman
United States
Destination: KOLM Olympia
United States
More flights between these airports :: More routes between these airports
Route: HQM V204 OLM OPOYU
File this flight plan on PilotEdge
Remarks:
Altitude:
(Current/Filed)
5,000ft
Speed:
(Current/Filed)
105kts
Departed: 03-Nov-20 07:57 PM
Arrived: 03-Nov-20 08:46 PM
Distance/Time
Traveled:
43nm/0:48
Distance/Time
To Go:
Arrived

Flight Plot

Page will automatically refresh every two minutes.

Flight plan parsing failed; only flown route is shown


Map Options




Map Legend


Flown Route
Filed Route
Departure Airport
Arrival Airport
Navaid (VOR, NDB)
Fix

Horizontal Profiles

Position Reports

Time Latitude Longitude Heading Altitude Ground
Speed
03-Nov-20 19:33 46.973675 -123.927354 122 27ft 0kts
03-Nov-20 19:34 46.973675 -123.927354 122 27ft 0kts
03-Nov-20 19:35 46.973675 -123.927354 122 27ft 0kts
03-Nov-20 19:36 46.973675 -123.927354 122 27ft 0kts
03-Nov-20 19:36 46.973675 -123.927354 122 27ft 0kts
03-Nov-20 19:38 46.973675 -123.927354 122 27ft 0kts
03-Nov-20 19:38 46.973675 -123.927354 122 27ft 0kts
03-Nov-20 19:40 46.973675 -123.927354 122 27ft 0kts
03-Nov-20 19:40 46.973675 -123.927354 122 27ft 0kts
03-Nov-20 19:41 46.973675 -123.927354 122 27ft 0kts
03-Nov-20 19:42 46.973675 -123.927354 122 27ft 0kts
03-Nov-20 19:43 46.973675 -123.927354 122 27ft 0kts
03-Nov-20 19:44 46.973675 -123.927354 122 27ft 0kts
03-Nov-20 19:45 46.973675 -123.927354 122 27ft 0kts
03-Nov-20 19:46 46.973675 -123.927354 122 27ft 0kts
03-Nov-20 19:47 46.973675 -123.927354 122 27ft 0kts
03-Nov-20 19:48 46.973675 -123.927354 122 27ft 0kts
03-Nov-20 19:49 46.973675 -123.927354 122 27ft 0kts
03-Nov-20 19:50 46.973675 -123.927354 122 27ft 0kts
03-Nov-20 19:51 46.973675 -123.927354 122 27ft 0kts
03-Nov-20 19:52 46.973675 -123.927354 122 27ft 0kts
03-Nov-20 19:53 46.973675 -123.927354 122 27ft 0kts
03-Nov-20 19:54 46.973675 -123.927353 123 27ft 0kts
03-Nov-20 19:55 46.972297 -123.927143 252 25ft 0kts
03-Nov-20 19:56 46.971735 -123.949405 259 543ft 75kts
03-Nov-20 19:57 46.972084 -123.979845 263 1440ft 75kts
03-Nov-20 19:58 46.969833 -124.005475 252 2056ft 82kts
03-Nov-20 19:59 46.965566 -124.031081 242 2770ft 75kts
03-Nov-20 20:00 46.959396 -124.059510 249 3548ft 75kts
03-Nov-20 20:01 46.957249 -124.094742 241 4374ft 74kts
03-Nov-20 20:02 46.952891 -124.126753 256 4987ft 87kts
03-Nov-20 20:03 46.937724 -124.133103 120 5040ft 122kts
03-Nov-20 20:04 46.941321 -124.085159 93 5001ft 131kts
03-Nov-20 20:05 46.947315 -124.038230 86 5030ft 126kts
03-Nov-20 20:06 46.951821 -123.993467 94 5043ft 125kts
03-Nov-20 20:07 46.954022 -123.949190 96 5046ft 125kts
03-Nov-20 20:08 46.952324 -123.908070 115 5038ft 118kts
03-Nov-20 20:09 46.952226 -123.863913 90 5048ft 126kts
03-Nov-20 20:10 46.956408 -123.821439 92 5044ft 126kts
03-Nov-20 20:11 46.958590 -123.778302 98 5045ft 124kts
03-Nov-20 20:12 46.958900 -123.734914 98 5045ft 124kts
03-Nov-20 20:13 46.959228 -123.684456 98 5045ft 124kts
03-Nov-20 20:14 46.959257 -123.639772 98 5045ft 133kts
03-Nov-20 20:15 46.959179 -123.593553 98 5045ft 133kts
03-Nov-20 20:16 46.958253 -123.542302 98 5043ft 136kts
03-Nov-20 20:17 46.954570 -123.477622 98 5040ft 140kts
03-Nov-20 20:18 46.952577 -123.421046 78 4997ft 140kts
03-Nov-20 20:19 46.955954 -123.383268 74 4995ft 136kts
03-Nov-20 20:20 46.959777 -123.350627 78 4992ft 134kts
03-Nov-20 20:21 46.961600 -123.318643 80 4993ft 134kts
03-Nov-20 20:22 46.963405 -123.288609 80 4995ft 134kts
03-Nov-20 20:23 46.965260 -123.259861 81 4997ft 136kts
03-Nov-20 20:24 46.966438 -123.230982 83 5000ft 137kts
03-Nov-20 20:25 46.967780 -123.201160 83 5002ft 138kts
03-Nov-20 20:26 46.977757 -123.176353 36 5003ft 130kts
03-Nov-20 20:27 46.991686 -123.157174 36 4990ft 130kts
03-Nov-20 20:28 47.006748 -123.136329 35 5011ft 127kts
03-Nov-20 20:29 47.020966 -123.115063 35 4986ft 127kts
03-Nov-20 20:30 47.040047 -123.088066 35 4953ft 126kts
03-Nov-20 20:31 47.061351 -123.057299 36 4978ft 131kts
03-Nov-20 20:32 47.085045 -123.025857 37 5001ft 138kts
03-Nov-20 20:33 47.111278 -122.987631 39 5000ft 138kts
03-Nov-20 20:34 47.142661 -122.954234 17 4976ft 137kts
03-Nov-20 20:35 47.172901 -122.938555 16 4321ft 139kts
03-Nov-20 20:36 47.205194 -122.918933 16 3641ft 135kts
03-Nov-20 20:37 47.225970 -122.876094 108 3006ft 118kts
03-Nov-20 20:38 47.189035 -122.847884 176 2486ft 98kts
03-Nov-20 20:39 47.151965 -122.853218 185 2437ft 87kts
03-Nov-20 20:40 47.124454 -122.860083 193 2440ft 95kts
03-Nov-20 20:41 47.090247 -122.868914 191 2486ft 85kts
03-Nov-20 20:42 47.054819 -122.880575 193 1795ft 91kts
03-Nov-20 20:43 47.022405 -122.888962 190 1150ft 89kts
03-Nov-20 20:44 46.991137 -122.898028 192 589ft 80kts
03-Nov-20 20:45 46.969625 -122.904370 189 201ft 31kts
03-Nov-20 20:46 46.967226 -122.903165 87 201ft 0kts
03-Nov-20 20:47 46.967226 -122.903165 87 201ft 0kts
03-Nov-20 20:48 46.967279 -122.901134 55 202ft 6kts
03-Nov-20 20:49 46.970779 -122.899108 46 201ft 8kts
03-Nov-20 20:50 46.973145 -122.896610 11 201ft 12kts
03-Nov-20 20:51 46.973405 -122.896473 137 201ft 0kts
03-Nov-20 20:52 46.973405 -122.896473 137 201ft 0kts
03-Nov-20 20:53 46.973405 -122.896473 137 201ft 0kts

Navigation Log

Ident Type
Flight plan parsing failed, navigation log unavailable